Aérodrome :







RETROUVEZ-NOUS SUR...

 
LOGIN :

S'inscrire | Disclaimer

   EN    FR    IT 

 









Légende :    VFR   VFR Marginal   IFR   IFR Intensif   IFR Très Intensif
Visi : 
Plafond : 
>= 8 km
>= 3000ft
5 à 8 km
1000 à 3000 ft
1500m à 5 km
500 à 1000 ft
800 à 1500m
200 à 500 ft
< 800m
< 200 ft
Symboles :   Orages  Brouillard  Fortes neiges  Fortes précipitations  Vent > 20 kt






- Altitude de l'aérodrome : 1411 ft
- Code IATA : VLN


SVVA - Arturo Michelena Int.

DERNIER METAR :
  • 191602Z AUTO 05009KT NCD 29/16 Q1017

METARs EXPIRÉS :
  • 191502Z AUTO 08006KT NCD 27/18 Q1017
  • 191402Z AUTO 09006KT NCD 26/19 Q1017
  • 191400Z /////KT 9999 FEW016 26/20 Q1016

TAF TAF SVVA
Valide du 18 à 18h jusqu'au 19 à 18h UTC


181700Z 1818/1918 09009KT 9999 SCT016 TX30/1818 TN21/1908
TEMPO 1820/1900 12004KT 9999 SCT016
TEMPO 1902/1906 36004KT 9999 SCT016



MET'MAP, la Météo Aéronautique d'un coup d'oeil ! - Copyright ORBIFLY Décembre 2007 - Disclaimer

ORBIFLY MET'MAP TEAM :

Programmation & Développement : Alexandra Zaïnal
Sur une idée originale de : Baudouin d'Aumeries
Assistance à la programmation : Marc-Olivier Méhu
Soutien technique & logistique : Manuel Goepfert

Contact : metmap@orbifly.com




SOURCES & CREDITS :

   NOAA